Time;durP1;ratioP1;P1;durP2;ratioP2;P2;SDS_P1;SDS_P2;PMS_P1;PMS_P2;Temp;Humidity;BMP_temperature;BMP_pressure;BME280_temperature;BME280_humidity;BME280_pressure;Samples;Min_cycle;Max_cycle;Signal;HPM_P1;HPM_P2
2021/05/24 00:00:09;;;;;;;2.67;0.65;;;;;;;;;;346760;28;1687;-65
2021/05/24 00:00:22;;;;;;;2.92;0.43;;;;;;;;;;344094;28;63685;-65
2021/05/24 00:00:35;;;;;;;4.28;0.57;;;;;;;;;;345900;28;16715;-65
2021/05/24 00:00:48;;;;;;;4.18;0.70;;;;;;;;;;346779;28;739;-64
2021/05/24 00:01:01;;;;;;;3.63;0.73;;;;;;;;;;346517;28;1094;-64
2021/05/24 00:01:13;;;;;;;2.70;0.70;;;;;;;;;;347857;28;1168;-72
2021/05/24 00:01:25;;;;;;;2.35;0.65;;;;;;;;;;347740;28;1181;-64
2021/05/24 00:01:37;;;;;;;3.03;0.80;;;;;;;;;;347848;28;1312;-64
2021/05/24 00:01:50;;;;;;;3.90;0.80;;;;;;;;;;347299;28;1127;-65
2021/05/24 00:02:02;;;;;;;4.95;0.80;;;;;;;;;;346460;28;1096;-64
2021/05/24 00:02:14;;;;;;;6.95;0.95;;;;;;;;;;346616;28;1117;-64
2021/05/24 00:02:26;;;;;;;6.70;0.88;;;;;;;;;;346551;28;982;-64
2021/05/24 00:02:39;;;;;;;6.25;0.90;;;;;;;;;;347227;28;1161;-64
2021/05/24 00:02:52;;;;;;;4.97;0.90;;;;;;;;;;347923;28;1132;-65
2021/05/24 00:03:04;;;;;;;3.95;0.77;;;;;;;;;;347597;28;1102;-64
2021/05/24 00:03:16;;;;;;;3.65;0.65;;;;;;;;;;347710;28;1257;-64
2021/05/24 00:03:28;;;;;;;2.80;0.60;;;;;;;;;;347573;28;1190;-65
2021/05/24 00:03:40;;;;;;;2.50;0.65;;;;;;;;;;347726;28;1094;-64
2021/05/24 00:03:52;;;;;;;3.05;0.70;;;;;;;;;;347698;28;1421;-64
2021/05/24 00:04:05;;;;;;;3.10;0.70;;;;;;;;;;347579;28;1049;-64
2021/05/24 00:04:17;;;;;;;2.80;0.70;;;;;;;;;;347688;28;1185;-65
2021/05/24 00:04:29;;;;;;;3.33;0.80;;;;;;;;;;347934;28;1094;-65
2021/05/24 00:04:41;;;;;;;3.20;0.70;;;;;;;;;;347705;28;1007;-65
2021/05/24 00:04:53;;;;;;;2.83;0.60;;;;;;;;;;347726;28;1212;-65
2021/05/24 00:05:07;;;;;;;2.33;0.60;;;;;;;;;;347712;28;1169;-65
2021/05/24 00:05:20;;;;;;;3.25;0.70;;;;;;;;;;347642;28;1148;-69
2021/05/24 00:05:33;;;;;;;3.10;0.65;;;;;;;;;;347209;28;17177;-64
2021/05/24 00:05:46;;;;;;;2.58;0.70;;;;;;;;;;347666;28;1207;-65
2021/05/24 00:05:59;;;;;;;2.78;0.70;;;;;;;;;;347900;28;1049;-69
2021/05/24 00:06:11;;;;;;;2.90;0.68;;;;;;;;;;346317;28;1978;-66
2021/05/24 00:06:23;;;;;;;2.70;0.60;;;;;;;;;;346446;28;1298;-64
2021/05/24 00:06:35;;;;;;;2.72;0.60;;;;;;;;;;346424;28;1177;-65
2021/05/24 00:06:47;;;;;;;3.38;0.70;;;;;;;;;;347565;28;1329;-65
2021/05/24 00:07:00;;;;;;;3.60;0.77;;;;;;;;;;347702;28;1084;-64
2021/05/24 00:07:12;;;;;;;3.92;0.80;;;;;;;;;;347568;28;1758;-65
2021/05/24 00:07:24;;;;;;;3.03;0.65;;;;;;;;;;347876;28;1681;-65
2021/05/24 00:07:36;;;;;;;2.65;0.55;;;;;;;;;;349067;28;1407;-64
2021/05/24 00:07:48;;;;;;;2.35;0.60;;;;;;;;;;347619;28;1741;-64
2021/05/24 00:08:01;;;;;;;2.33;0.70;;;;;;;;;;347823;28;1078;-64
2021/05/24 00:08:13;;;;;;;3.03;0.80;;;;;;;;;;347792;28;1157;-65
2021/05/24 00:08:26;;;;;;;3.58;0.80;;;;;;;;;;347741;28;1023;-65
2021/05/24 00:08:38;;;;;;;3.55;0.80;;;;;;;;;;347708;28;1284;-64
2021/05/24 00:08:50;;;;;;;3.78;0.80;;;;;;;;;;347728;28;1195;-64
2021/05/24 00:09:03;;;;;;;3.65;0.90;;;;;;;;;;347791;28;974;-64
2021/05/24 00:09:15;;;;;;;2.88;0.80;;;;;;;;;;347810;28;1124;-64
2021/05/24 00:09:27;;;;;;;2.08;0.65;;;;;;;;;;347801;28;1046;-65
2021/05/24 00:09:39;;;;;;;2.90;0.63;;;;;;;;;;347562;28;1118;-64
2021/05/24 00:09:52;;;;;;;2.75;0.60;;;;;;;;;;348463;28;1380;-64
2021/05/24 00:10:05;;;;;;;3.05;0.60;;;;;;;;;;348986;28;1102;-66
2021/05/24 00:10:19;;;;;;;3.14;0.70;;;;;;;;;;348714;28;1090;-65
2021/05/24 00:10:34;;;;;;;3.65;0.63;;;;;;;;;;348948;28;1174;-65
2021/05/24 00:10:47;;;;;;;2.45;0.52;;;;;;;;;;345446;28;63826;-64
2021/05/24 00:11:00;;;;;;;1.98;0.63;;;;;;;;;;346483;28;1261;-65
2021/05/24 00:11:12;;;;;;;3.30;0.82;;;;;;;;;;346664;28;1120;-64
2021/05/24 00:11:24;;;;;;;3.08;0.80;;;;;;;;;;346327;28;1046;-64
2021/05/24 00:11:36;;;;;;;2.22;0.55;;;;;;;;;;345109;28;1089;-64
2021/05/24 00:11:51;;;;;;;3.38;0.60;;;;;;;;;;344956;28;1045;-64
2021/05/24 00:12:03;;;;;;;3.72;0.65;;;;;;;;;;343685;28;39825;-65
2021/05/24 00:12:24;;;;;;;2.97;0.73;;;;;;;;;;345561;28;1232;-64
2021/05/24 00:12:37;;;;;;;1.95;0.60;;;;;;;;;;344141;28;63726;-67
2021/05/24 00:12:50;;;;;;;1.77;0.52;;;;;;;;;;347275;28;1065;-65
2021/05/24 00:13:10;;;;;;;2.38;0.65;;;;;;;;;;348224;28;16681;-65
2021/05/24 00:13:22;;;;;;;3.20;0.77;;;;;;;;;;346854;28;62947;-64
2021/05/24 00:13:43;;;;;;;3.22;0.70;;;;;;;;;;349678;28;1129;-65
2021/05/24 00:13:56;;;;;;;2.20;0.60;;;;;;;;;;348460;28;63582;-64
2021/05/24 00:14:12;;;;;;;2.60;0.60;;;;;;;;;;350324;28;1042;-65
2021/05/24 00:14:26;;;;;;;3.47;0.60;;;;;;;;;;348268;28;63073;-64
2021/05/24 00:14:39;;;;;;;2.97;0.63;;;;;;;;;;350034;28;16620;-65
2021/05/24 00:14:54;;;;;;;2.13;0.60;;;;;;;;;;350108;28;16909;-66
2021/05/24 00:15:06;;;;;;;2.78;0.65;;;;;;;;;;347744;28;39921;-64
2021/05/24 00:15:20;;;;;;;2.80;0.60;;;;;;;;;;347735;28;1004;-64
2021/05/24 00:15:32;;;;;;;2.72;0.70;;;;;;;;;;347199;28;16970;-64
2021/05/24 00:15:46;;;;;;;2.78;0.80;;;;;;;;;;347726;28;1338;-66
2021/05/24 00:15:59;;;;;;;2.70;0.80;;;;;;;;;;347244;28;16573;-65
2021/05/24 00:16:11;;;;;;;2.60;0.70;;;;;;;;;;347655;28;1154;-64
2021/05/24 00:16:24;;;;;;;1.92;0.60;;;;;;;;;;347819;28;1094;-68
2021/05/24 00:16:36;;;;;;;2.63;0.60;;;;;;;;;;347684;28;1487;-65
2021/05/24 00:16:48;;;;;;;2.78;0.60;;;;;;;;;;347747;28;1085;-64
2021/05/24 00:17:00;;;;;;;3.78;0.68;;;;;;;;;;347666;28;1090;-64
2021/05/24 00:17:12;;;;;;;3.50;0.60;;;;;;;;;;348927;28;1083;-65
2021/05/24 00:17:25;;;;;;;4.38;0.63;;;;;;;;;;349269;28;1089;-65
2021/05/24 00:17:37;;;;;;;3.78;0.70;;;;;;;;;;349468;28;1134;-65
2021/05/24 00:17:50;;;;;;;4.40;0.82;;;;;;;;;;348859;28;1801;-65
2021/05/24 00:18:02;;;;;;;3.22;0.80;;;;;;;;;;348909;28;1711;-64
2021/05/24 00:18:15;;;;;;;2.83;0.68;;;;;;;;;;348939;28;1104;-66
2021/05/24 00:18:27;;;;;;;3.03;0.70;;;;;;;;;;348960;28;1111;-66
2021/05/24 00:18:39;;;;;;;3.97;0.85;;;;;;;;;;349040;28;1117;-65
2021/05/24 00:18:51;;;;;;;4.18;0.90;;;;;;;;;;349094;28;1088;-65
2021/05/24 00:19:03;;;;;;;4.47;0.85;;;;;;;;;;348897;28;1038;-65
2021/05/24 00:19:16;;;;;;;3.47;0.68;;;;;;;;;;348989;28;1098;-65
2021/05/24 00:19:28;;;;;;;2.60;0.57;;;;;;;;;;349159;28;1078;-65
2021/05/24 00:19:40;;;;;;;1.88;0.50;;;;;;;;;;349045;28;1054;-65
2021/05/24 00:19:52;;;;;;;2.60;0.60;;;;;;;;;;348959;28;1053;-65
2021/05/24 00:20:04;;;;;;;3.03;0.77;;;;;;;;;;347694;28;1129;-65
2021/05/24 00:20:18;;;;;;;3.05;0.80;;;;;;;;;;347762;28;1120;-65
2021/05/24 00:20:33;;;;;;;4.00;0.90;;;;;;;;;;347142;28;16135;-65
2021/05/24 00:20:50;;;;;;;4.13;0.70;;;;;;;;;;346300;28;41178;-65
2021/05/24 00:21:02;;;;;;;3.17;0.52;;;;;;;;;;345472;28;63725;-69
2021/05/24 00:21:14;;;;;;;3.60;0.60;;;;;;;;;;347685;28;1035;-65
2021/05/24 00:21:27;;;;;;;3.47;0.80;;;;;;;;;;347717;28;1161;-65
2021/05/24 00:21:39;;;;;;;3.08;0.82;;;;;;;;;;347683;28;1038;-67
2021/05/24 00:21:51;;;;;;;3.35;0.88;;;;;;;;;;347503;28;1125;-64
2021/05/24 00:22:04;;;;;;;3.28;0.77;;;;;;;;;;347744;28;1002;-65
2021/05/24 00:22:16;;;;;;;2.45;0.77;;;;;;;;;;347912;28;1005;-65
2021/05/24 00:22:28;;;;;;;1.75;0.65;;;;;;;;;;347971;28;1097;-65
2021/05/24 00:22:40;;;;;;;2.40;0.60;;;;;;;;;;347658;28;995;-65
2021/05/24 00:22:52;;;;;;;3.30;0.60;;;;;;;;;;347880;28;1062;-66
2021/05/24 00:23:05;;;;;;;4.80;0.63;;;;;;;;;;347910;28;1031;-65
2021/05/24 00:23:17;;;;;;;4.45;0.65;;;;;;;;;;347879;28;1142;-68
2021/05/24 00:23:29;;;;;;;3.42;0.70;;;;;;;;;;347905;28;1102;-70
2021/05/24 00:23:41;;;;;;;2.58;0.63;;;;;;;;;;347825;28;1388;-68
2021/05/24 00:23:53;;;;;;;2.67;0.60;;;;;;;;;;347861;28;1142;-69
2021/05/24 00:24:05;;;;;;;2.83;0.60;;;;;;;;;;347708;28;1218;-68
2021/05/24 00:24:18;;;;;;;4.32;0.77;;;;;;;;;;347525;28;2036;-70
2021/05/24 00:24:30;;;;;;;4.05;0.85;;;;;;;;;;347698;28;1042;-72
2021/05/24 00:24:42;;;;;;;5.03;0.90;;;;;;;;;;347583;28;993;-70
2021/05/24 00:24:54;;;;;;;3.88;0.70;;;;;;;;;;347706;28;994;-69
2021/05/24 00:25:07;;;;;;;2.45;0.60;;;;;;;;;;347709;28;1102;-70
2021/05/24 00:25:19;;;;;;;3.74;0.66;;;;;;;;;;347589;28;1093;-66
2021/05/24 00:25:32;;;;;;;4.65;0.70;;;;;;;;;;347539;28;1062;-67
2021/05/24 00:25:44;;;;;;;3.55;0.77;;;;;;;;;;347662;28;1178;-69
2021/05/24 00:25:57;;;;;;;2.28;0.70;;;;;;;;;;347626;28;1068;-69
2021/05/24 00:26:10;;;;;;;2.40;0.68;;;;;;;;;;347946;28;1086;-67
2021/05/24 00:26:22;;;;;;;2.88;0.75;;;;;;;;;;347901;28;1190;-71
2021/05/24 00:26:34;;;;;;;3.28;0.90;;;;;;;;;;347970;28;1101;-70
2021/05/24 00:26:46;;;;;;;3.50;0.80;;;;;;;;;;347785;28;1301;-69
2021/05/24 00:26:59;;;;;;;2.70;0.70;;;;;;;;;;347548;28;1736;-72
2021/05/24 00:27:12;;;;;;;2.05;0.63;;;;;;;;;;347587;28;1117;-72
2021/05/24 00:27:25;;;;;;;2.65;0.90;;;;;;;;;;347206;28;16775;-68
2021/05/24 00:27:37;;;;;;;3.85;1.05;;;;;;;;;;347630;28;1099;-68
2021/05/24 00:27:49;;;;;;;4.75;0.85;;;;;;;;;;347526;28;1142;-70
2021/05/24 00:28:01;;;;;;;5.13;0.90;;;;;;;;;;347638;28;1173;-69
2021/05/24 00:28:14;;;;;;;3.65;0.70;;;;;;;;;;347631;28;1279;-70
2021/05/24 00:28:26;;;;;;;3.50;0.73;;;;;;;;;;347486;28;1693;-70
2021/05/24 00:28:39;;;;;;;3.75;0.82;;;;;;;;;;348932;28;1617;-72
2021/05/24 00:28:52;;;;;;;3.38;0.80;;;;;;;;;;347732;28;1043;-68
2021/05/24 00:29:04;;;;;;;4.88;1.15;;;;;;;;;;348744;28;1153;-71
2021/05/24 00:29:19;;;;;;;5.30;1.30;;;;;;;;;;347733;28;2000;-71
2021/05/24 00:29:31;;;;;;;4.93;1.05;;;;;;;;;;346642;28;39672;-69
2021/05/24 00:29:43;;;;;;;2.35;0.68;;;;;;;;;;347664;28;1098;-69
2021/05/24 00:29:56;;;;;;;3.97;0.82;;;;;;;;;;347812;28;1126;-71
2021/05/24 00:30:08;;;;;;;4.70;0.90;;;;;;;;;;347909;28;1176;-70
2021/05/24 00:30:21;;;;;;;3.70;0.75;;;;;;;;;;347847;28;1215;-69
2021/05/24 00:30:33;;;;;;;2.75;0.70;;;;;;;;;;347867;28;1090;-68
2021/05/24 00:30:47;;;;;;;2.95;0.70;;;;;;;;;;347936;28;1122;-70
2021/05/24 00:30:59;;;;;;;3.15;0.75;;;;;;;;;;347280;28;17378;-67
2021/05/24 00:31:13;;;;;;;3.17;0.60;;;;;;;;;;346091;28;17040;-70
2021/05/24 00:31:25;;;;;;;3.28;0.60;;;;;;;;;;347808;28;1120;-69
2021/05/24 00:31:37;;;;;;;3.10;0.60;;;;;;;;;;347642;28;1090;-66
2021/05/24 00:31:49;;;;;;;2.00;0.45;;;;;;;;;;347710;28;1026;-69
2021/05/24 00:32:01;;;;;;;2.38;0.55;;;;;;;;;;347470;28;1134;-66
2021/05/24 00:32:13;;;;;;;2.45;0.70;;;;;;;;;;347755;28;1094;-68
2021/05/24 00:32:26;;;;;;;2.33;0.80;;;;;;;;;;347690;28;1225;-69
2021/05/24 00:32:38;;;;;;;2.98;0.80;;;;;;;;;;347629;28;1069;-68
2021/05/24 00:32:50;;;;;;;3.35;0.88;;;;;;;;;;347466;28;1145;-66
2021/05/24 00:33:03;;;;;;;2.90;0.80;;;;;;;;;;347757;28;1079;-63
2021/05/24 00:33:15;;;;;;;2.78;0.60;;;;;;;;;;348779;28;1102;-69
2021/05/24 00:33:27;;;;;;;2.45;0.50;;;;;;;;;;349280;28;1669;-69
2021/05/24 00:33:39;;;;;;;3.05;0.57;;;;;;;;;;348381;28;1103;-70
2021/05/24 00:33:51;;;;;;;4.07;0.70;;;;;;;;;;347837;28;1002;-70
2021/05/24 00:34:03;;;;;;;3.92;0.88;;;;;;;;;;348013;28;1284;-67
2021/05/24 00:34:15;;;;;;;4.30;1.08;;;;;;;;;;347938;28;1234;-70
2021/05/24 00:34:28;;;;;;;3.45;0.90;;;;;;;;;;348079;28;1226;-71
2021/05/24 00:34:40;;;;;;;2.55;0.70;;;;;;;;;;347883;28;1173;-67
2021/05/24 00:34:54;;;;;;;2.50;0.80;;;;;;;;;;347872;28;1190;-69
2021/05/24 00:35:06;;;;;;;2.80;0.68;;;;;;;;;;346630;28;41063;-67
2021/05/24 00:35:18;;;;;;;2.72;0.70;;;;;;;;;;347941;28;1185;-68
2021/05/24 00:35:31;;;;;;;3.03;0.77;;;;;;;;;;347963;28;1157;-70
2021/05/24 00:35:43;;;;;;;2.28;0.60;;;;;;;;;;347978;28;1116;-68
2021/05/24 00:35:55;;;;;;;1.75;0.50;;;;;;;;;;347684;28;1079;-68
2021/05/24 00:36:07;;;;;;;1.95;0.60;;;;;;;;;;348000;28;1956;-68
2021/05/24 00:36:19;;;;;;;2.92;0.73;;;;;;;;;;347965;28;1187;-70
2021/05/24 00:36:31;;;;;;;3.55;0.70;;;;;;;;;;347712;28;1100;-66
2021/05/24 00:36:43;;;;;;;3.40;0.70;;;;;;;;;;347646;28;1204;-70
2021/05/24 00:36:56;;;;;;;3.13;0.70;;;;;;;;;;347540;28;1174;-68
2021/05/24 00:37:08;;;;;;;2.20;0.63;;;;;;;;;;347631;28;1291;-70
2021/05/24 00:37:20;;;;;;;2.25;0.60;;;;;;;;;;348110;28;1106;-70
2021/05/24 00:37:32;;;;;;;3.03;0.70;;;;;;;;;;347733;28;1348;-70
2021/05/24 00:37:45;;;;;;;4.97;0.85;;;;;;;;;;347955;28;1181;-71
2021/05/24 00:37:57;;;;;;;4.85;0.70;;;;;;;;;;347713;28;1173;-66
2021/05/24 00:38:10;;;;;;;3.00;0.54;;;;;;;;;;347645;28;1116;-70
2021/05/24 00:38:22;;;;;;;2.05;0.57;;;;;;;;;;347752;28;1091;-70
2021/05/24 00:38:35;;;;;;;2.72;0.77;;;;;;;;;;348573;28;1061;-70
2021/05/24 00:38:47;;;;;;;2.42;0.70;;;;;;;;;;347882;28;1090;-70
2021/05/24 00:38:59;;;;;;;2.10;0.60;;;;;;;;;;347748;28;1088;-69
2021/05/24 00:39:11;;;;;;;2.17;0.45;;;;;;;;;;347768;28;1653;-70
2021/05/24 00:39:23;;;;;;;5.90;0.60;;;;;;;;;;347572;28;1673;-69
2021/05/24 00:39:36;;;;;;;6.47;0.70;;;;;;;;;;349045;28;1114;-69
2021/05/24 00:39:48;;;;;;;3.22;0.65;;;;;;;;;;348965;28;1211;-70
2021/05/24 00:40:00;;;;;;;2.90;0.65;;;;;;;;;;349246;28;1248;-70
2021/05/24 00:40:12;;;;;;;3.72;0.70;;;;;;;;;;349525;28;1038;-70
2021/05/24 00:40:24;;;;;;;4.63;0.70;;;;;;;;;;349068;28;1168;-70
2021/05/24 00:40:37;;;;;;;5.45;1.00;;;;;;;;;;347827;28;1287;-70
2021/05/24 00:40:50;;;;;;;6.05;1.00;;;;;;;;;;348610;28;1180;-69
2021/05/24 00:41:02;;;;;;;4.60;0.95;;;;;;;;;;347767;28;1140;-71
2021/05/24 00:41:14;;;;;;;3.80;0.80;;;;;;;;;;347621;28;1133;-70
2021/05/24 00:41:27;;;;;;;2.90;0.75;;;;;;;;;;347810;28;1030;-70
2021/05/24 00:41:40;;;;;;;3.85;0.75;;;;;;;;;;347728;28;1149;-70
2021/05/24 00:41:52;;;;;;;4.47;0.93;;;;;;;;;;348039;28;1168;-70
2021/05/24 00:42:04;;;;;;;4.75;0.85;;;;;;;;;;347618;28;991;-70
2021/05/24 00:42:17;;;;;;;3.75;0.73;;;;;;;;;;346243;28;1173;-68
2021/05/24 00:42:29;;;;;;;4.40;0.70;;;;;;;;;;346498;28;1214;-67
2021/05/24 00:42:41;;;;;;;2.65;0.65;;;;;;;;;;346506;28;1095;-66
2021/05/24 00:42:53;;;;;;;2.92;0.70;;;;;;;;;;347284;28;1071;-65
2021/05/24 00:43:06;;;;;;;2.42;0.70;;;;;;;;;;348739;28;1034;-66
2021/05/24 00:43:19;;;;;;;1.98;0.60;;;;;;;;;;349026;28;1122;-67
2021/05/24 00:43:31;;;;;;;1.63;0.57;;;;;;;;;;349123;28;1013;-69
2021/05/24 00:43:43;;;;;;;2.17;0.60;;;;;;;;;;348019;28;1006;-70
2021/05/24 00:43:55;;;;;;;2.50;0.63;;;;;;;;;;347828;28;1050;-70
2021/05/24 00:44:08;;;;;;;3.55;0.88;;;;;;;;;;347683;28;1129;-68
2021/05/24 00:44:25;;;;;;;3.72;0.80;;;;;;;;;;345674;28;63826;-68
2021/05/24 00:44:37;;;;;;;3.72;0.70;;;;;;;;;;347207;28;18214;-67
2021/05/24 00:44:49;;;;;;;3.25;0.60;;;;;;;;;;347803;28;1169;-69
2021/05/24 00:45:02;;;;;;;4.30;0.60;;;;;;;;;;347665;28;1152;-69
2021/05/24 00:45:15;;;;;;;3.22;0.60;;;;;;;;;;347200;28;16971;-70
2021/05/24 00:45:27;;;;;;;2.15;0.68;;;;;;;;;;348051;28;1168;-70
2021/05/24 00:45:40;;;;;;;2.40;0.70;;;;;;;;;;347987;28;1083;-70
2021/05/24 00:45:52;;;;;;;2.75;0.77;;;;;;;;;;349126;28;1061;-70
2021/05/24 00:46:04;;;;;;;3.13;0.80;;;;;;;;;;349071;28;1165;-70
2021/05/24 00:46:16;;;;;;;3.28;0.75;;;;;;;;;;349157;28;1172;-70
2021/05/24 00:46:32;;;;;;;2.35;0.50;;;;;;;;;;349153;28;1239;-69
2021/05/24 00:46:44;;;;;;;2.25;0.52;;;;;;;;;;347124;28;62681;-69
2021/05/24 00:46:56;;;;;;;2.50;0.60;;;;;;;;;;348985;28;1057;-69
2021/05/24 00:47:09;;;;;;;2.88;0.68;;;;;;;;;;349218;28;1086;-69
2021/05/24 00:47:21;;;;;;;1.92;0.50;;;;;;;;;;348938;28;1199;-69
2021/05/24 00:47:33;;;;;;;1.88;0.50;;;;;;;;;;349210;28;1097;-70
2021/05/24 00:47:46;;;;;;;2.20;0.52;;;;;;;;;;349077;28;1108;-70
2021/05/24 00:47:58;;;;;;;2.05;0.50;;;;;;;;;;349174;28;1060;-68
2021/05/24 00:48:10;;;;;;;2.50;0.50;;;;;;;;;;349017;28;1002;-69
2021/05/24 00:48:22;;;;;;;2.97;0.65;;;;;;;;;;349071;28;1188;-70
2021/05/24 00:48:35;;;;;;;3.13;0.68;;;;;;;;;;349160;28;1110;-69
2021/05/24 00:48:47;;;;;;;3.58;0.70;;;;;;;;;;349035;28;1166;-70
2021/05/24 00:49:00;;;;;;;3.75;0.70;;;;;;;;;;349480;28;1113;-70
2021/05/24 00:49:12;;;;;;;4.28;0.77;;;;;;;;;;347852;28;950;-70
2021/05/24 00:49:27;;;;;;;3.85;0.82;;;;;;;;;;347826;28;1184;-70
2021/05/24 00:49:44;;;;;;;3.20;0.90;;;;;;;;;;344968;28;40151;-69
2021/05/24 00:49:56;;;;;;;3.35;0.85;;;;;;;;;;344279;28;63876;-70
2021/05/24 00:50:09;;;;;;;3.85;0.70;;;;;;;;;;346392;28;1367;-69
2021/05/24 00:50:22;;;;;;;3.92;0.50;;;;;;;;;;346143;28;1177;-70
2021/05/24 00:50:34;;;;;;;2.63;0.50;;;;;;;;;;345184;28;1114;-69
2021/05/24 00:50:46;;;;;;;1.42;0.52;;;;;;;;;;345083;28;1152;-70
2021/05/24 00:50:58;;;;;;;2.05;0.70;;;;;;;;;;345634;28;1082;-71
2021/05/24 00:51:11;;;;;;;3.20;0.75;;;;;;;;;;346490;28;1297;-70
2021/05/24 00:51:23;;;;;;;3.70;0.80;;;;;;;;;;347577;28;1087;-70
2021/05/24 00:51:35;;;;;;;3.85;0.70;;;;;;;;;;347489;28;1210;-70
2021/05/24 00:51:47;;;;;;;3.75;0.60;;;;;;;;;;349186;28;1116;-67
2021/05/24 00:52:00;;;;;;;2.80;0.50;;;;;;;;;;348998;28;1075;-70
2021/05/24 00:52:12;;;;;;;1.92;0.50;;;;;;;;;;347813;28;1058;-70
2021/05/24 00:52:25;;;;;;;2.38;0.50;;;;;;;;;;347772;28;1250;-70
2021/05/24 00:52:37;;;;;;;1.77;0.50;;;;;;;;;;348109;28;1160;-69
2021/05/24 00:52:49;;;;;;;1.98;0.50;;;;;;;;;;349157;28;1103;-70
2021/05/24 00:53:02;;;;;;;2.78;0.50;;;;;;;;;;349169;28;1244;-70
2021/05/24 00:53:14;;;;;;;2.65;0.47;;;;;;;;;;349159;28;1022;-66
2021/05/24 00:53:26;;;;;;;3.05;0.60;;;;;;;;;;349163;28;1084;-70
2021/05/24 00:53:38;;;;;;;3.05;0.70;;;;;;;;;;349077;28;1161;-68
2021/05/24 00:53:51;;;;;;;3.33;0.70;;;;;;;;;;349181;28;1062;-70
2021/05/24 00:54:03;;;;;;;3.42;0.77;;;;;;;;;;347803;28;1125;-68
2021/05/24 00:54:16;;;;;;;2.88;0.90;;;;;;;;;;348635;28;1102;-69
2021/05/24 00:54:28;;;;;;;3.55;0.98;;;;;;;;;;349204;28;1253;-70
2021/05/24 00:54:41;;;;;;;4.50;0.88;;;;;;;;;;349183;28;1096;-68
2021/05/24 00:54:53;;;;;;;4.07;0.90;;;;;;;;;;349134;28;1032;-66
2021/05/24 00:55:06;;;;;;;2.72;0.80;;;;;;;;;;349058;28;1112;-70
2021/05/24 00:55:20;;;;;;;2.80;0.70;;;;;;;;;;349015;28;1013;-69
2021/05/24 00:55:32;;;;;;;2.65;0.60;;;;;;;;;;347292;28;16711;-67
2021/05/24 00:55:44;;;;;;;2.00;0.63;;;;;;;;;;347766;28;1082;-69
2021/05/24 00:55:57;;;;;;;2.38;0.70;;;;;;;;;;346560;28;1157;-68
2021/05/24 00:56:09;;;;;;;4.07;0.75;;;;;;;;;;347636;28;1123;-69
2021/05/24 00:56:22;;;;;;;5.20;0.82;;;;;;;;;;347745;28;1586;-68
2021/05/24 00:56:34;;;;;;;5.18;0.98;;;;;;;;;;345931;28;1643;-67
2021/05/24 00:56:47;;;;;;;4.07;0.90;;;;;;;;;;346302;28;1107;-69
2021/05/24 00:57:04;;;;;;;3.10;0.80;;;;;;;;;;344093;28;62670;-66
2021/05/24 00:57:17;;;;;;;2.05;0.55;;;;;;;;;;346311;28;1105;-69
2021/05/24 00:57:29;;;;;;;2.64;0.48;;;;;;;;;;346658;28;1320;-69
2021/05/24 00:57:43;;;;;;;3.70;0.50;;;;;;;;;;347764;28;1108;-69
2021/05/24 00:57:56;;;;;;;3.92;0.60;;;;;;;;;;347280;28;16736;-70
2021/05/24 00:58:11;;;;;;;3.58;0.70;;;;;;;;;;348028;28;1175;-70
2021/05/24 00:58:23;;;;;;;2.85;0.77;;;;;;;;;;345992;28;41115;-67
2021/05/24 00:58:35;;;;;;;2.90;0.73;;;;;;;;;;348348;28;1190;-69
2021/05/24 00:58:48;;;;;;;4.00;0.80;;;;;;;;;;349258;28;1237;-65
2021/05/24 00:59:00;;;;;;;3.45;0.70;;;;;;;;;;349016;28;993;-70
2021/05/24 00:59:12;;;;;;;3.50;0.77;;;;;;;;;;349243;28;1168;-68
2021/05/24 00:59:25;;;;;;;3.70;0.65;;;;;;;;;;349221;28;1517;-70
2021/05/24 00:59:37;;;;;;;3.83;0.50;;;;;;;;;;349127;28;1189;-69
2021/05/24 00:59:49;;;;;;;5.32;0.73;;;;;;;;;;349282;28;1145;-68
2021/05/24 01:00:03;;;;;;;6.28;0.90;;;;;;;;;;349311;28;1089;-65
2021/05/24 01:00:34;;;;;;;4.50;0.80;;;;;;;;;;348508;28;16023;-68
2021/05/24 01:00:48;;;;;;;2.60;0.70;;;;;;;;;;345662;28;63313;-68
2021/05/24 01:01:01;;;;;;;3.15;0.70;;;;;;;;;;347902;28;1037;-68
2021/05/24 01:01:13;;;;;;;3.63;0.70;;;;;;;;;;347546;28;16061;-68
2021/05/24 01:01:28;;;;;;;2.95;0.60;;;;;;;;;;348173;28;1129;-70
2021/05/24 01:01:41;;;;;;;2.53;0.70;;;;;;;;;;346523;28;39755;-68
2021/05/24 01:01:53;;;;;;;2.85;0.82;;;;;;;;;;347898;28;1117;-68
2021/05/24 01:02:05;;;;;;;3.58;0.98;;;;;;;;;;347911;28;1114;-67
2021/05/24 01:02:18;;;;;;;3.60;0.93;;;;;;;;;;347848;28;1007;-69
2021/05/24 01:02:30;;;;;;;3.42;0.90;;;;;;;;;;347821;28;1022;-69
2021/05/24 01:02:42;;;;;;;4.57;0.90;;;;;;;;;;349020;28;1150;-67
2021/05/24 01:02:58;;;;;;;4.28;0.80;;;;;;;;;;346321;28;1102;-69
2021/05/24 01:03:12;;;;;;;3.10;0.70;;;;;;;;;;344190;28;64147;-67
2021/05/24 01:03:25;;;;;;;2.95;0.73;;;;;;;;;;346437;28;1058;-67
2021/05/24 01:03:37;;;;;;;3.15;0.80;;;;;;;;;;346393;28;1102;-67
2021/05/24 01:03:51;;;;;;;3.38;0.70;;;;;;;;;;346398;28;1153;-65
2021/05/24 01:04:04;;;;;;;2.63;0.50;;;;;;;;;;345903;28;16141;-67
2021/05/24 01:04:18;;;;;;;1.60;0.40;;;;;;;;;;346746;28;1238;-69
2021/05/24 01:04:30;;;;;;;1.24;0.50;;;;;;;;;;347127;28;16901;-69
2021/05/24 01:04:43;;;;;;;2.10;0.52;;;;;;;;;;346929;28;1250;-67
2021/05/24 01:04:55;;;;;;;2.15;0.60;;;;;;;;;;347113;28;1189;-69
2021/05/24 01:05:08;;;;;;;1.65;0.60;;;;;;;;;;347662;28;1082;-69
2021/05/24 01:05:20;;;;;;;1.95;0.60;;;;;;;;;;348003;28;1122;-68
2021/05/24 01:05:32;;;;;;;3.38;0.70;;;;;;;;;;347792;28;1169;-69
2021/05/24 01:05:44;;;;;;;5.43;0.82;;;;;;;;;;347903;28;1266;-64
2021/05/24 01:05:57;;;;;;;5.63;0.90;;;;;;;;;;348149;28;1161;-69
2021/05/24 01:06:09;;;;;;;4.32;0.93;;;;;;;;;;348063;28;1205;-69
2021/05/24 01:06:21;;;;;;;2.80;0.85;;;;;;;;;;347922;28;1098;-65
2021/05/24 01:06:34;;;;;;;2.55;0.80;;;;;;;;;;348057;28;1084;-68
2021/05/24 01:06:46;;;;;;;3.35;0.70;;;;;;;;;;348030;28;1106;-68
2021/05/24 01:06:58;;;;;;;3.17;0.80;;;;;;;;;;348043;28;1176;-68
2021/05/24 01:07:11;;;;;;;2.47;0.68;;;;;;;;;;347915;28;1220;-70
2021/05/24 01:07:23;;;;;;;2.00;0.70;;;;;;;;;;348155;28;1692;-71
2021/05/24 01:07:35;;;;;;;1.75;0.70;;;;;;;;;;348480;28;1774;-69
2021/05/24 01:07:47;;;;;;;2.35;0.70;;;;;;;;;;349304;28;1049;-69
2021/05/24 01:08:00;;;;;;;2.60;0.63;;;;;;;;;;349444;28;1126;-68
2021/05/24 01:08:13;;;;;;;4.20;0.84;;;;;;;;;;348616;28;1253;-66
2021/05/24 01:08:25;;;;;;;4.53;0.70;;;;;;;;;;347959;28;1103;-69
2021/05/24 01:08:37;;;;;;;3.65;0.60;;;;;;;;;;348196;28;1190;-68
2021/05/24 01:08:50;;;;;;;4.40;0.60;;;;;;;;;;348445;28;1200;-68
2021/05/24 01:09:02;;;;;;;4.40;0.77;;;;;;;;;;348015;28;1095;-66
2021/05/24 01:09:16;;;;;;;5.07;0.90;;;;;;;;;;347936;28;1189;-68
2021/05/24 01:09:28;;;;;;;4.03;0.80;;;;;;;;;;347941;28;1168;-69
2021/05/24 01:09:40;;;;;;;3.33;0.80;;;;;;;;;;347913;28;1121;-68
2021/05/24 01:09:53;;;;;;;4.55;0.88;;;;;;;;;;344766;28;16641;-67
2021/05/24 01:10:06;;;;;;;5.05;0.93;;;;;;;;;;345381;28;1027;-67
2021/05/24 01:10:19;;;;;;;5.35;0.80;;;;;;;;;;345133;28;1420;-69
2021/05/24 01:10:32;;;;;;;4.25;0.70;;;;;;;;;;345251;28;1119;-68
2021/05/24 01:10:44;;;;;;;3.55;0.70;;;;;;;;;;345303;28;1067;-67
2021/05/24 01:10:56;;;;;;;2.67;0.68;;;;;;;;;;345437;28;1153;-68
2021/05/24 01:11:08;;;;;;;2.90;0.82;;;;;;;;;;346608;28;1202;-66
2021/05/24 01:11:21;;;;;;;4.57;0.80;;;;;;;;;;346830;28;1207;-68
2021/05/24 01:11:33;;;;;;;5.03;0.90;;;;;;;;;;346526;28;1084;-65
2021/05/24 01:11:47;;;;;;;3.88;0.90;;;;;;;;;;346741;28;1051;-68
2021/05/24 01:11:59;;;;;;;3.72;0.80;;;;;;;;;;347955;28;1185;-67
2021/05/24 01:12:11;;;;;;;3.78;0.68;;;;;;;;;;348059;28;1056;-67
2021/05/24 01:12:24;;;;;;;2.60;0.50;;;;;;;;;;347870;28;1995;-66
2021/05/24 01:12:36;;;;;;;2.28;0.50;;;;;;;;;;347920;28;1089;-69
2021/05/24 01:12:48;;;;;;;3.03;0.57;;;;;;;;;;348248;28;990;-68
2021/05/24 01:13:07;;;;;;;3.63;0.73;;;;;;;;;;345625;28;64035;-64
2021/05/24 01:13:19;;;;;;;3.80;0.85;;;;;;;;;;346866;28;41000;-66
2021/05/24 01:13:31;;;;;;;3.65;0.80;;;;;;;;;;348150;28;1190;-67
2021/05/24 01:13:44;;;;;;;3.70;0.70;;;;;;;;;;348253;28;1229;-68
2021/05/24 01:13:56;;;;;;;3.17;0.60;;;;;;;;;;348132;28;1165;-67
2021/05/24 01:14:08;;;;;;;2.70;0.57;;;;;;;;;;348169;28;1094;-64
2021/05/24 01:14:20;;;;;;;2.97;0.50;;;;;;;;;;348220;28;1093;-68
2021/05/24 01:14:32;;;;;;;2.40;0.40;;;;;;;;;;348200;28;1145;-68
2021/05/24 01:14:44;;;;;;;2.63;0.50;;;;;;;;;;348042;28;1056;-66
2021/05/24 01:14:57;;;;;;;2.65;0.70;;;;;;;;;;348120;28;1034;-67
2021/05/24 01:15:09;;;;;;;3.28;0.80;;;;;;;;;;348119;28;1350;-67
2021/05/24 01:15:21;;;;;;;3.78;0.88;;;;;;;;;;348115;28;1177;-64
2021/05/24 01:15:34;;;;;;;4.15;0.90;;;;;;;;;;348175;28;1110;-68
2021/05/24 01:15:46;;;;;;;3.78;0.82;;;;;;;;;;347932;28;1255;-67
2021/05/24 01:15:58;;;;;;;4.05;0.82;;;;;;;;;;348054;28;1090;-67
2021/05/24 01:16:10;;;;;;;2.67;0.73;;;;;;;;;;347979;28;1082;-67
2021/05/24 01:16:23;;;;;;;3.75;0.80;;;;;;;;;;347991;28;1038;-68
2021/05/24 01:16:35;;;;;;;4.18;0.80;;;;;;;;;;347974;28;1165;-68
2021/05/24 01:16:49;;;;;;;4.13;0.65;;;;;;;;;;347888;28;1106;-68
2021/05/24 01:17:02;;;;;;;4.03;0.65;;;;;;;;;;346617;28;40937;-69
2021/05/24 01:17:14;;;;;;;3.50;0.70;;;;;;;;;;347903;28;1146;-69
2021/05/24 01:17:26;;;;;;;2.50;0.70;;;;;;;;;;347884;28;1182;-67
2021/05/24 01:17:39;;;;;;;1.95;0.52;;;;;;;;;;347766;28;1060;-68
2021/05/24 01:17:54;;;;;;;3.68;0.60;;;;;;;;;;349027;28;1193;-67
2021/05/24 01:18:06;;;;;;;5.55;0.75;;;;;;;;;;346877;28;39711;-68
2021/05/24 01:18:19;;;;;;;4.85;0.77;;;;;;;;;;347963;28;1776;-66
2021/05/24 01:18:31;;;;;;;4.63;0.80;;;;;;;;;;348201;28;1165;-66